Time;durP1;ratioP1;P1;durP2;ratioP2;P2;SDS_P1;SDS_P2;PMS_P1;PMS_P2;Temp;Humidity;BMP_temperature;BMP_pressure;BME280_temperature;BME280_humidity;BME280_pressure;Samples;Min_cycle;Max_cycle;Signal;HPM_P1;HPM_P2
2022/03/02 00:02:01;;;;;;;7.47;5.60;;;6.00;99.90;;;;;;5104238;28;20233;-73
2022/03/02 00:04:27;;;;;;;7.73;5.20;;;6.00;99.90;;;;;;5067545;28;20176;-73
2022/03/02 00:06:55;;;;;;;9.10;5.37;;;6.00;99.90;;;;;;5077465;28;20205;-73
2022/03/02 00:09:23;;;;;;;7.67;5.30;;;6.00;99.90;;;;;;5112971;27;20213;-72
2022/03/02 00:11:52;;;;;;;7.67;5.37;;;6.00;99.90;;;;;;5111098;28;20227;-74
2022/03/02 00:14:20;;;;;;;8.20;5.30;;;6.00;99.90;;;;;;5080744;28;20251;-72
2022/03/02 00:16:45;;;;;;;7.17;5.13;;;6.00;99.90;;;;;;5084156;28;20290;-74
2022/03/02 00:19:13;;;;;;;8.37;5.80;;;6.00;99.90;;;;;;5093961;28;20262;-74
2022/03/02 00:21:41;;;;;;;8.23;5.80;;;6.00;99.90;;;;;;5117828;27;20172;-71
2022/03/02 00:24:09;;;;;;;8.87;5.97;;;6.00;99.90;;;;;;5117472;27;20175;-73
2022/03/02 00:26:38;;;;;;;8.37;6.30;;;6.00;99.90;;;;;;5078542;28;20352;-73
2022/03/02 00:29:06;;;;;;;10.50;6.10;;;5.90;99.90;;;;;;5082402;28;20229;-72
2022/03/02 00:31:39;;;;;;;8.23;5.80;;;5.90;99.90;;;;;;5115960;27;20411;-74
2022/03/02 00:34:04;;;;;;;8.93;5.60;;;5.90;99.90;;;;;;5076128;28;20203;-74
2022/03/02 00:36:30;;;;;;;8.10;5.70;;;5.90;99.90;;;;;;5078841;28;20204;-73
2022/03/02 00:38:55;;;;;;;7.47;5.13;;;5.90;99.90;;;;;;5105270;28;20176;-73
2022/03/02 00:41:21;;;;;;;7.20;5.43;;;5.90;99.90;;;;;;5111232;27;20196;-74
2022/03/02 00:43:49;;;;;;;8.77;5.73;;;5.90;99.90;;;;;;5111341;28;20172;-73
2022/03/02 00:46:19;;;;;;;8.20;5.00;;;5.90;99.90;;;;;;5072692;28;20308;-75
2022/03/02 00:48:44;;;;;;;9.17;5.13;;;5.90;99.90;;;;;;5088523;28;20179;-73
2022/03/02 00:51:10;;;;;;;7.83;5.07;;;5.90;99.90;;;;;;5080446;28;20189;-71
2022/03/02 00:53:36;;;;;;;7.47;5.33;;;5.80;99.90;;;;;;5074432;28;20179;-73
2022/03/02 00:56:09;;;;;;;7.33;5.30;;;5.80;99.90;;;;;;5080722;28;20172;-74
2022/03/02 00:58:34;;;;;;;7.60;4.83;;;5.80;99.90;;;;;;5079029;28;20213;-74
2022/03/02 01:01:02;;;;;;;6.47;4.83;;;5.80;99.90;;;;;;5105907;28;20195;-74
2022/03/02 01:03:30;;;;;;;7.10;4.73;;;5.70;99.90;;;;;;5113206;28;20193;-72
2022/03/02 01:05:59;;;;;;;7.77;4.87;;;5.70;99.90;;;;;;5113633;27;20180;-74
2022/03/02 01:08:27;;;;;;;6.63;4.87;;;5.60;99.90;;;;;;5082928;28;20211;-74
2022/03/02 01:10:52;;;;;;;9.90;5.37;;;5.60;99.90;;;;;;5114880;27;20176;-75
2022/03/02 01:13:18;;;;;;;8.00;5.10;;;5.50;99.90;;;;;;5098681;28;20232;-69
2022/03/02 01:15:46;;;;;;;6.20;4.83;;;5.50;99.90;;;;;;5085338;28;20178;-74
2022/03/02 01:18:17;;;;;;;7.70;5.40;;;5.50;99.90;;;;;;5085533;28;20196;-72
2022/03/02 01:20:43;;;;;;;7.77;5.63;;;5.50;99.90;;;;;;5074147;28;20190;-73
2022/03/02 01:23:09;;;;;;;7.83;5.20;;;5.40;99.90;;;;;;5115291;27;20295;-72
2022/03/02 01:25:35;;;;;;;6.97;5.33;;;5.40;99.90;;;;;;5100461;28;20299;-74
2022/03/02 01:28:03;;;;;;;7.40;5.00;;;5.30;99.90;;;;;;5080314;28;20204;-73
2022/03/02 01:30:29;;;;;;;6.70;5.17;;;5.30;99.90;;;;;;5120075;27;20399;-73
2022/03/02 01:32:57;;;;;;;7.67;5.00;;;5.30;99.90;;;;;;5095268;28;20183;-74
2022/03/02 01:35:23;;;;;;;6.73;4.73;;;5.20;99.90;;;;;;5111358;27;20504;-74
2022/03/02 01:37:50;;;;;;;12.53;5.50;;;5.20;99.90;;;;;;5104404;27;20208;-74
2022/03/02 01:40:18;;;;;;;7.33;4.93;;;5.20;99.90;;;;;;5084444;28;20188;-74
2022/03/02 01:42:47;;;;;;;6.63;5.03;;;5.10;99.90;;;;;;5086323;28;20210;-74
2022/03/02 01:45:14;;;;;;;7.77;5.60;;;5.10;99.90;;;;;;5109649;27;20267;-72
2022/03/02 01:47:45;;;;;;;7.77;4.87;;;5.10;99.90;;;;;;5102001;27;20207;-74
2022/03/02 01:50:13;;;;;;;7.30;5.13;;;5.10;99.90;;;;;;5121596;27;20264;-74
2022/03/02 01:52:39;;;;;;;7.20;4.63;;;5.00;99.90;;;;;;5110738;28;20241;-74
2022/03/02 01:55:07;;;;;;;8.20;5.40;;;5.00;99.90;;;;;;5084098;28;20211;-73
2022/03/02 01:57:33;;;;;;;8.63;5.50;;;5.00;99.90;;;;;;5121303;27;20210;-73
2022/03/02 02:00:01;;;;;;;8.30;5.30;;;4.90;99.90;;;;;;5090364;28;20267;-74
2022/03/02 02:02:26;;;;;;;6.67;4.90;;;4.90;99.90;;;;;;5079486;28;20349;-73
2022/03/02 02:04:53;;;;;;;6.80;5.00;;;5.00;99.90;;;;;;5079334;28;20435;-72
2022/03/02 02:07:22;;;;;;;7.27;4.93;;;4.90;99.90;;;;;;5095598;28;20423;-74
2022/03/02 02:09:49;;;;;;;8.23;4.60;;;4.90;99.90;;;;;;5118201;27;20184;-73
2022/03/02 02:12:14;;;;;;;8.10;4.70;;;4.90;99.90;;;;;;5083801;28;20188;-73
2022/03/02 02:14:40;;;;;;;7.57;4.97;;;5.00;99.90;;;;;;5074136;28;20455;-73
2022/03/02 02:17:06;;;;;;;7.90;5.27;;;5.00;99.90;;;;;;5106211;28;20408;-72
2022/03/02 02:19:31;;;;;;;7.83;5.10;;;5.00;99.90;;;;;;5087469;28;20179;-73
2022/03/02 02:21:57;;;;;;;7.00;5.07;;;5.00;99.90;;;;;;5082134;28;20336;-70
2022/03/02 02:24:25;;;;;;;7.97;5.00;;;5.00;99.90;;;;;;5076623;28;20176;-74
2022/03/02 02:26:50;;;;;;;7.33;5.10;;;5.00;99.90;;;;;;5093157;28;20205;-74
2022/03/02 02:29:21;;;;;;;7.93;5.03;;;5.00;99.90;;;;;;5083800;28;20235;-73
2022/03/02 02:31:46;;;;;;;7.73;4.73;;;5.00;99.90;;;;;;5109648;27;20168;-72
2022/03/02 02:34:17;;;;;;;7.30;5.00;;;5.10;99.90;;;;;;5085884;28;20196;-74
2022/03/02 02:36:46;;;;;;;7.23;4.73;;;5.10;99.90;;;;;;5084789;28;20196;-73
2022/03/02 02:39:14;;;;;;;6.57;4.53;;;5.10;99.90;;;;;;5072996;28;20175;-74
2022/03/02 02:41:40;;;;;;;6.73;4.60;;;5.20;99.90;;;;;;5106825;27;20202;-70
2022/03/02 02:44:06;;;;;;;8.13;5.07;;;5.20;99.90;;;;;;5081623;28;20263;-74
2022/03/02 02:46:32;;;;;;;7.33;5.43;;;5.20;99.90;;;;;;5080377;28;20216;-73
2022/03/02 02:48:59;;;;;;;7.27;5.20;;;5.20;99.90;;;;;;5118150;27;20210;-74
2022/03/02 02:51:27;;;;;;;7.23;5.47;;;5.20;99.90;;;;;;5090551;28;20217;-74
2022/03/02 02:53:53;;;;;;;6.67;4.47;;;5.20;99.90;;;;;;5078841;28;20176;-73
2022/03/02 02:56:21;;;;;;;6.23;4.60;;;5.20;99.90;;;;;;5115327;27;20194;-74
2022/03/02 02:58:47;;;;;;;6.27;4.53;;;5.30;99.90;;;;;;5111580;27;20198;-73
2022/03/02 03:01:13;;;;;;;6.80;4.63;;;5.30;99.90;;;;;;5111123;27;20192;-73
2022/03/02 03:03:41;;;;;;;6.43;4.60;;;5.30;99.90;;;;;;5101655;27;20182;-74
2022/03/02 03:06:06;;;;;;;8.63;5.20;;;5.30;99.90;;;;;;5107389;27;20181;-73
2022/03/02 03:08:32;;;;;;;7.77;5.17;;;5.30;99.90;;;;;;5110666;27;20211;-72
2022/03/02 03:10:57;;;;;;;7.10;5.07;;;5.30;99.90;;;;;;5119104;27;20168;-73
2022/03/02 03:13:24;;;;;;;7.90;4.60;;;5.30;99.90;;;;;;5087120;28;20188;-73
2022/03/02 03:15:50;;;;;;;6.47;4.63;;;5.30;99.90;;;;;;5076492;28;20207;-74
2022/03/02 03:18:16;;;;;;;7.13;4.50;;;5.30;99.90;;;;;;5112229;27;20264;-74
2022/03/02 03:20:42;;;;;;;6.37;4.40;;;5.30;99.90;;;;;;5099380;28;20182;-72
2022/03/02 03:23:08;;;;;;;6.67;4.70;;;5.20;99.90;;;;;;5129345;27;20223;-74
2022/03/02 03:25:34;;;;;;;6.53;4.80;;;5.20;99.90;;;;;;5085397;28;20213;-74
2022/03/02 03:28:05;;;;;;;8.93;5.70;;;5.20;99.90;;;;;;5082484;28;20172;-73
2022/03/02 03:30:31;;;;;;;8.20;5.90;;;5.10;99.90;;;;;;5110060;28;20229;-70
2022/03/02 03:33:02;;;;;;;8.13;5.07;;;5.10;99.90;;;;;;5114055;27;20188;-71
2022/03/02 03:35:33;;;;;;;7.73;5.27;;;5.10;99.90;;;;;;5095338;28;20192;-72
2022/03/02 03:37:58;;;;;;;7.43;5.20;;;5.00;99.90;;;;;;5085736;28;20298;-73
2022/03/02 03:40:29;;;;;;;9.33;5.20;;;5.00;99.90;;;;;;5124304;27;20612;-74
2022/03/02 03:42:57;;;;;;;7.17;5.40;;;5.00;99.90;;;;;;5078656;28;20225;-72
2022/03/02 03:45:23;;;;;;;6.87;5.00;;;5.00;99.90;;;;;;5077732;28;20156;-80
2022/03/02 03:47:53;;;;;;;8.33;4.70;;;5.00;99.90;;;;;;5113107;27;20176;-73
2022/03/02 03:50:19;;;;;;;7.23;4.77;;;5.00;99.90;;;;;;5112042;27;20203;-80
2022/03/02 03:52:47;;;;;;;6.93;4.97;;;5.00;99.90;;;;;;5113282;27;20202;-81
2022/03/02 03:55:14;;;;;;;7.70;5.10;;;5.00;99.90;;;;;;5079785;28;20246;-80
2022/03/02 03:57:40;;;;;;;7.00;4.97;;;5.00;99.90;;;;;;5071629;28;20222;-81
2022/03/02 04:00:08;;;;;;;7.67;5.00;;;5.00;99.90;;;;;;5100167;27;20195;-80
2022/03/02 04:02:34;;;;;;;6.60;4.70;;;5.00;99.90;;;;;;5078655;28;20238;-80
2022/03/02 04:05:04;;;;;;;9.37;4.87;;;5.00;99.90;;;;;;5078943;28;20227;-80
2022/03/02 04:07:32;;;;;;;6.27;4.70;;;5.00;99.90;;;;;;5115755;27;20237;-80
2022/03/02 04:09:58;;;;;;;6.73;4.80;;;5.00;99.90;;;;;;5104073;27;20191;-81
2022/03/02 04:12:24;;;;;;;7.13;4.83;;;5.00;99.90;;;;;;5085094;28;20204;-77
2022/03/02 04:14:55;;;;;;;7.03;5.10;;;5.00;99.90;;;;;;5071202;28;20187;-81
2022/03/02 04:17:22;;;;;;;8.83;5.30;;;5.00;99.90;;;;;;5102847;27;20306;-80
2022/03/02 04:19:48;;;;;;;7.03;5.13;;;5.00;99.90;;;;;;5076691;28;20236;-78
2022/03/02 04:22:14;;;;;;;8.63;6.13;;;5.00;99.90;;;;;;5083692;28;20265;-81
2022/03/02 04:24:39;;;;;;;6.80;5.20;;;5.00;99.90;;;;;;5079410;28;20180;-80
2022/03/02 04:27:07;;;;;;;8.87;5.20;;;5.00;99.90;;;;;;5077125;28;20172;-80
2022/03/02 04:29:33;;;;;;;6.53;4.93;;;5.00;99.90;;;;;;5113992;27;20184;-79
2022/03/02 04:31:59;;;;;;;7.17;5.23;;;5.00;99.90;;;;;;5080518;28;20252;-79
2022/03/02 04:34:26;;;;;;;6.97;5.00;;;5.00;99.90;;;;;;5072660;28;20176;-80
2022/03/02 04:36:54;;;;;;;8.23;5.23;;;5.10;99.90;;;;;;5108686;27;20295;-81
2022/03/02 04:39:20;;;;;;;7.53;4.83;;;5.10;99.90;;;;;;5089170;28;20200;-80
2022/03/02 04:41:46;;;;;;;8.20;5.57;;;5.10;99.90;;;;;;5093003;28;20198;-78
2022/03/02 04:44:11;;;;;;;9.30;6.70;;;5.10;99.90;;;;;;5083699;28;20180;-72
2022/03/02 04:46:48;;;;;;;10.03;6.70;;;5.10;99.90;;;;;;5078049;28;20226;-80
2022/03/02 04:49:15;;;;;;;8.40;6.30;;;5.10;99.90;;;;;;5112419;27;20183;-80
2022/03/02 04:51:41;;;;;;;9.40;6.27;;;5.10;99.90;;;;;;5102509;27;20186;-80
2022/03/02 04:54:07;;;;;;;9.13;6.43;;;5.00;99.90;;;;;;5086542;28;20192;-81
2022/03/02 04:56:34;;;;;;;7.70;5.53;;;5.00;99.90;;;;;;5078551;28;20252;-81
2022/03/02 04:59:03;;;;;;;7.37;5.33;;;5.00;99.90;;;;;;5109164;28;20324;-81
2022/03/02 05:01:29;;;;;;;7.83;5.90;;;5.00;99.90;;;;;;5112148;28;20199;-80
2022/03/02 05:03:55;;;;;;;10.57;6.63;;;5.00;99.90;;;;;;5107746;28;20190;-80
2022/03/02 05:06:20;;;;;;;8.23;5.40;;;5.00;99.90;;;;;;5085688;28;20207;-79
2022/03/02 05:08:46;;;;;;;7.63;5.80;;;5.00;99.90;;;;;;5112628;28;20205;-80
2022/03/02 05:11:13;;;;;;;7.57;5.57;;;5.00;99.90;;;;;;5070414;28;20172;-78
2022/03/02 05:13:42;;;;;;;7.37;5.53;;;5.00;99.90;;;;;;5077101;28;20182;-80
2022/03/02 05:16:12;;;;;;;8.73;5.70;;;5.00;99.90;;;;;;5127313;28;20163;-78
2022/03/02 05:18:41;;;;;;;7.67;5.63;;;5.00;99.90;;;;;;5110695;28;20176;-76
2022/03/02 05:21:10;;;;;;;8.20;5.97;;;5.00;99.90;;;;;;5111740;28;20196;-81
2022/03/02 05:23:35;;;;;;;8.87;5.57;;;5.00;99.90;;;;;;5080258;28;20203;-80
2022/03/02 05:26:01;;;;;;;7.40;5.27;;;5.00;99.90;;;;;;5080091;28;20200;-80
2022/03/02 05:28:27;;;;;;;7.43;5.33;;;5.00;99.90;;;;;;5082262;28;20255;-79
2022/03/02 05:30:55;;;;;;;8.23;5.20;;;5.00;99.90;;;;;;5080634;28;20188;-81
2022/03/02 05:33:23;;;;;;;8.47;5.73;;;5.10;99.90;;;;;;5104383;28;20211;-77
2022/03/02 05:35:53;;;;;;;7.93;5.37;;;5.10;99.90;;;;;;5070388;28;20200;-74
2022/03/02 05:38:18;;;;;;;7.80;5.30;;;5.10;99.90;;;;;;5080812;28;20215;-75
2022/03/02 05:40:44;;;;;;;7.50;5.50;;;5.10;99.90;;;;;;5103019;28;20230;-80
2022/03/02 05:43:10;;;;;;;7.33;5.20;;;5.10;99.90;;;;;;5105950;28;20239;-86
2022/03/02 05:45:35;;;;;;;7.43;4.90;;;5.10;99.90;;;;;;5100187;28;20199;-81
2022/03/02 05:48:01;;;;;;;6.10;4.67;;;5.20;99.90;;;;;;5113564;28;20160;-82
2022/03/02 05:50:30;;;;;;;6.47;4.67;;;5.20;99.90;;;;;;5066039;28;20183;-87
2022/03/02 05:52:55;;;;;;;6.10;4.53;;;5.20;99.90;;;;;;5108814;27;20197;-78
2022/03/02 05:55:28;;;;;;;6.53;4.70;;;5.20;99.90;;;;;;5078204;28;20211;-81
2022/03/02 05:57:56;;;;;;;5.47;4.23;;;5.20;99.90;;;;;;5076224;28;20294;-80
2022/03/02 06:00:22;;;;;;;6.17;4.53;;;5.20;99.90;;;;;;5079776;28;20263;-81
2022/03/02 06:02:48;;;;;;;6.57;4.27;;;5.20;99.90;;;;;;5092583;28;20211;-79
2022/03/02 06:05:14;;;;;;;6.30;4.23;;;5.20;99.90;;;;;;5090463;28;20310;-76
2022/03/02 06:07:42;;;;;;;7.57;5.23;;;5.20;99.90;;;;;;5074954;28;20250;-78
2022/03/02 06:10:11;;;;;;;6.87;5.20;;;5.20;99.90;;;;;;5107785;27;20179;-78
2022/03/02 06:12:37;;;;;;;7.53;5.00;;;5.20;99.90;;;;;;5109936;28;20178;-74
2022/03/02 06:15:07;;;;;;;6.60;4.60;;;5.20;99.90;;;;;;5080721;28;20171;-73
2022/03/02 06:17:35;;;;;;;6.67;4.67;;;5.20;99.90;;;;;;5084167;28;20204;-79
2022/03/02 06:20:01;;;;;;;7.63;4.70;;;5.20;99.90;;;;;;5115988;27;20199;-78
2022/03/02 06:22:27;;;;;;;8.10;4.67;;;5.20;99.90;;;;;;5128357;27;20172;-78
2022/03/02 06:24:56;;;;;;;7.67;4.60;;;5.20;99.90;;;;;;5109295;27;20291;-75
2022/03/02 06:27:21;;;;;;;6.47;4.70;;;5.10;99.90;;;;;;5114394;27;20184;-76
2022/03/02 06:29:47;;;;;;;8.57;5.93;;;5.10;99.90;;;;;;5122326;27;20211;-75
2022/03/02 06:32:13;;;;;;;7.07;5.10;;;5.10;99.90;;;;;;5079114;28;20176;-75
2022/03/02 06:34:41;;;;;;;6.80;4.70;;;5.10;99.90;;;;;;5085283;28;20253;-78
2022/03/02 06:37:07;;;;;;;7.40;5.50;;;5.10;99.90;;;;;;5114272;27;20200;-77
2022/03/02 06:39:40;;;;;;;8.00;5.63;;;5.10;99.90;;;;;;5099952;28;20282;-73
2022/03/02 06:42:38;;;;;;;8.87;5.47;;;5.10;99.90;;;;;;5080521;28;20175;-72
2022/03/02 06:45:29;;;;;;;8.33;5.57;;;5.10;99.90;;;;;;5065791;28;20206;-78
2022/03/02 06:48:06;;;;;;;7.43;5.27;;;5.10;99.90;;;;;;5075851;28;20191;-76
2022/03/02 06:50:37;;;;;;;8.63;4.97;;;5.10;99.90;;;;;;5084889;28;20183;-78
2022/03/02 06:53:08;;;;;;;6.50;4.70;;;5.10;99.90;;;;;;5083345;28;20256;-78
2022/03/02 06:55:36;;;;;;;7.27;5.03;;;5.10;99.90;;;;;;5104704;27;20199;-77
2022/03/02 06:58:09;;;;;;;9.50;6.70;;;5.10;99.90;;;;;;5066815;28;20192;-78
2022/03/02 07:00:36;;;;;;;9.03;6.20;;;5.20;99.90;;;;;;5095977;28;20495;-77
2022/03/02 07:03:10;;;;;;;8.73;5.73;;;5.20;99.90;;;;;;5078899;28;20223;-77
2022/03/02 07:05:37;;;;;;;7.37;5.53;;;5.20;99.90;;;;;;5113988;27;20218;-77
2022/03/02 07:08:08;;;;;;;7.13;5.70;;;5.20;99.90;;;;;;5113147;28;20187;-77
2022/03/02 07:10:35;;;;;;;6.70;5.60;;;5.30;99.90;;;;;;5077953;28;20187;-76
2022/03/02 07:13:05;;;;;;;9.00;5.97;;;5.30;99.90;;;;;;5105714;27;20176;-75
2022/03/02 07:15:32;;;;;;;8.57;5.73;;;5.30;99.90;;;;;;5092891;28;20171;-77
2022/03/02 07:18:04;;;;;;;6.60;5.13;;;5.30;99.90;;;;;;5089464;28;20207;-76
2022/03/02 07:20:30;;;;;;;7.37;5.03;;;5.40;99.90;;;;;;5099183;27;20195;-73
2022/03/02 07:22:57;;;;;;;6.50;4.97;;;5.40;99.90;;;;;;5077469;28;20237;-75
2022/03/02 07:25:33;;;;;;;6.97;5.13;;;5.40;99.90;;;;;;5078051;28;20247;-74
2022/03/02 07:28:02;;;;;;;7.00;5.07;;;5.50;99.90;;;;;;5115588;27;20315;-76
2022/03/02 07:30:30;;;;;;;7.73;5.20;;;5.50;99.90;;;;;;5114980;27;20184;-75
2022/03/02 07:33:01;;;;;;;6.47;5.00;;;5.50;99.90;;;;;;5078795;28;20258;-77
2022/03/02 07:35:31;;;;;;;6.83;5.00;;;5.60;99.90;;;;;;5070868;28;20196;-75
2022/03/02 07:37:59;;;;;;;7.33;5.13;;;5.60;99.90;;;;;;5104780;27;20192;-77
2022/03/02 07:40:30;;;;;;;7.10;5.30;;;5.60;99.90;;;;;;5071926;28;20182;-76
2022/03/02 07:42:58;;;;;;;8.53;5.80;;;5.60;99.90;;;;;;5094388;28;20168;-77
2022/03/02 07:45:26;;;;;;;8.60;5.63;;;5.60;99.90;;;;;;5100846;27;20169;-77
2022/03/02 07:47:52;;;;;;;8.47;5.43;;;5.60;99.90;;;;;;5111980;27;20207;-76
2022/03/02 07:50:17;;;;;;;7.00;5.17;;;5.60;99.90;;;;;;5121096;27;20203;-73
2022/03/02 07:52:54;;;;;;;7.07;5.17;;;5.70;99.90;;;;;;5079616;28;20322;-76
2022/03/02 07:55:23;;;;;;;6.30;4.77;;;5.70;99.90;;;;;;5092036;28;20176;-76
2022/03/02 07:57:55;;;;;;;7.90;4.70;;;5.70;99.90;;;;;;5078534;28;20203;-76
2022/03/02 08:00:28;;;;;;;8.97;6.17;;;5.70;99.90;;;;;;5110114;27;20246;-77
2022/03/02 08:02:56;;;;;;;8.90;6.20;;;5.80;99.90;;;;;;5068563;28;20226;-77
2022/03/02 08:05:23;;;;;;;7.67;5.37;;;5.80;99.90;;;;;;5060002;28;20193;-70
2022/03/02 08:07:49;;;;;;;9.47;6.40;;;5.80;99.90;;;;;;5106053;28;20176;-77
2022/03/02 08:10:17;;;;;;;7.40;5.40;;;5.80;99.90;;;;;;5088041;28;20182;-75
2022/03/02 08:12:46;;;;;;;9.07;5.93;;;5.80;99.90;;;;;;5092799;28;20199;-78
2022/03/02 08:15:12;;;;;;;8.53;5.87;;;5.90;99.90;;;;;;5097587;28;20182;-75
2022/03/02 08:17:38;;;;;;;7.07;4.93;;;5.90;99.90;;;;;;5073698;28;20530;-77
2022/03/02 08:20:08;;;;;;;7.43;5.47;;;5.90;99.90;;;;;;5119662;27;20199;-72
2022/03/02 08:22:38;;;;;;;9.13;5.50;;;6.00;99.90;;;;;;5085320;28;20175;-74
2022/03/02 08:25:10;;;;;;;5.93;4.70;;;6.00;99.90;;;;;;5079428;28;20241;-74
2022/03/02 08:27:38;;;;;;;6.93;4.83;;;6.10;99.90;;;;;;5125532;27;20196;-77
2022/03/02 08:30:06;;;;;;;6.60;4.80;;;6.10;99.90;;;;;;5077271;28;20188;-75
2022/03/02 08:32:36;;;;;;;5.60;4.27;;;6.10;99.90;;;;;;5085062;28;20262;-77
2022/03/02 08:35:05;;;;;;;7.73;4.90;;;6.20;99.90;;;;;;5087830;28;20284;-76
2022/03/02 08:37:31;;;;;;;10.30;5.30;;;6.20;99.90;;;;;;5078719;28;20241;-78
2022/03/02 08:39:58;;;;;;;9.63;5.40;;;6.30;99.90;;;;;;5092511;28;20208;-78
2022/03/02 08:42:26;;;;;;;7.23;5.30;;;6.30;99.90;;;;;;5085031;28;20206;-76
2022/03/02 08:44:54;;;;;;;6.17;4.90;;;6.40;99.90;;;;;;5118360;27;20232;-78
2022/03/02 08:47:23;;;;;;;6.60;5.00;;;6.50;99.90;;;;;;5059956;28;20177;-78
2022/03/02 08:49:49;;;;;;;6.70;5.07;;;6.50;99.90;;;;;;5073613;28;20203;-77
2022/03/02 08:52:20;;;;;;;6.77;5.30;;;6.60;99.90;;;;;;5116112;27;20203;-78
2022/03/02 08:54:50;;;;;;;7.17;4.87;;;6.70;99.90;;;;;;5121380;27;20187;-79
2022/03/02 08:57:15;;;;;;;7.07;5.50;;;6.70;99.90;;;;;;5086290;28;20206;-76
2022/03/02 08:59:41;;;;;;;6.60;5.13;;;6.80;99.90;;;;;;5079195;28;20203;-78
2022/03/02 09:02:08;;;;;;;7.27;5.07;;;6.80;99.90;;;;;;5078399;28;20176;-77
2022/03/02 09:04:35;;;;;;;8.33;4.97;;;6.90;99.90;;;;;;5107556;28;20249;-76
2022/03/02 09:07:05;;;;;;;7.67;5.33;;;7.00;99.90;;;;;;5097240;28;20443;-77
2022/03/02 09:09:31;;;;;;;7.47;5.67;;;7.10;99.90;;;;;;5076792;28;20260;-79
2022/03/02 09:11:59;;;;;;;6.33;4.63;;;7.10;99.90;;;;;;5081800;28;20203;-76
2022/03/02 09:14:25;;;;;;;8.37;4.97;;;7.20;99.90;;;;;;5083818;28;20206;-78
2022/03/02 09:16:51;;;;;;;6.97;5.00;;;7.30;99.90;;;;;;5083755;28;20204;-73
2022/03/02 09:19:17;;;;;;;6.83;5.00;;;7.40;99.90;;;;;;5077837;28;20172;-77
2022/03/02 09:21:46;;;;;;;8.20;5.00;;;7.50;99.90;;;;;;5091138;28;20167;-78
2022/03/02 09:24:13;;;;;;;8.57;5.03;;;7.50;99.90;;;;;;5087676;28;20163;-79
2022/03/02 09:26:39;;;;;;;9.07;5.80;;;7.60;99.90;;;;;;5078716;28;20192;-78
2022/03/02 09:29:06;;;;;;;6.83;4.93;;;7.70;99.90;;;;;;5100686;28;20243;-78
2022/03/02 09:31:37;;;;;;;9.07;5.27;;;7.80;99.90;;;;;;5070270;28;20294;-78
2022/03/02 09:34:09;;;;;;;9.23;5.90;;;7.90;99.90;;;;;;5125016;27;20175;-77
2022/03/02 09:36:38;;;;;;;6.50;4.93;;;8.00;99.90;;;;;;5099218;28;20247;-76
2022/03/02 09:39:09;;;;;;;6.57;5.00;;;8.10;99.90;;;;;;5114603;27;20200;-78
2022/03/02 09:41:58;;;;;;;6.70;4.87;;;8.60;99.90;;;;;;5082246;28;20194;-75
2022/03/02 09:44:39;;;;;;;6.77;4.70;;;9.50;99.90;;;;;;5092209;28;20183;-78
2022/03/02 09:47:16;;;;;;;5.87;4.50;;;10.40;99.90;;;;;;5089359;28;20227;-77
2022/03/02 09:49:47;;;;;;;6.30;4.70;;;11.20;99.90;;;;;;5079755;28;20192;-78
2022/03/02 09:52:20;;;;;;;6.47;4.60;;;12.00;97.90;;;;;;5127007;27;20191;-78
2022/03/02 09:54:51;;;;;;;5.75;4.72;;;12.50;97.00;;;;;;5078571;28;20211;-76
2022/03/02 09:57:20;;;;;;;4.95;4.00;;;13.10;97.90;;;;;;5109273;28;20286;-79
2022/03/02 09:59:54;;;;;;;6.03;4.90;;;13.60;98.20;;;;;;5115326;27;20176;-79
2022/03/02 10:02:37;;;;;;;6.10;4.65;;;14.10;92.20;;;;;;5082499;28;20254;-75
2022/03/02 10:05:09;;;;;;;6.38;4.88;;;14.40;92.90;;;;;;5092748;28;20191;-79
2022/03/02 10:07:40;;;;;;;6.35;4.72;;;14.70;91.10;;;;;;5072858;28;20192;-76
2022/03/02 10:10:06;;;;;;;5.97;4.82;;;14.90;90.50;;;;;;5091725;28;20203;-80
2022/03/02 10:12:32;;;;;;;5.32;4.43;;;15.00;86.80;;;;;;5078720;28;20182;-79
2022/03/02 10:14:58;;;;;;;5.88;4.50;;;15.00;90.50;;;;;;5115748;27;20252;-78
2022/03/02 10:17:33;;;;;;;6.55;4.50;;;15.20;90.50;;;;;;5112972;28;20210;-78
2022/03/02 10:20:04;;;;;;;5.60;3.95;;;15.40;85.80;;;;;;5085563;28;20176;-80
2022/03/02 10:22:39;;;;;;;5.72;4.22;;;15.60;88.70;;;;;;5094629;28;20207;-79
2022/03/02 10:25:08;;;;;;;7.63;4.72;;;15.70;84.70;;;;;;5095509;28;20202;-79
2022/03/02 10:28:08;;;;;;;4.88;4.28;;;15.90;80.70;;;;;;5114114;28;20196;-79
2022/03/02 10:30:41;;;;;;;4.82;4.13;;;16.00;74.10;;;;;;5131368;27;20187;-79
2022/03/02 10:33:21;;;;;;;5.55;4.28;;;16.10;79.90;;;;;;5074864;28;20212;-80
2022/03/02 10:36:10;;;;;;;6.43;4.68;;;16.10;71.30;;;;;;5122768;27;20194;-80
2022/03/02 10:38:38;;;;;;;4.57;3.97;;;16.10;72.20;;;;;;5093050;28;20191;-80
2022/03/02 10:41:10;;;;;;;4.53;3.97;;;16.10;80.50;;;;;;5097672;28;20220;-79
2022/03/02 10:43:54;;;;;;;6.10;4.68;;;16.10;79.10;;;;;;5096733;28;20279;-79
2022/03/02 10:46:22;;;;;;;4.88;4.18;;;16.20;72.00;;;;;;5093489;28;20171;-78
2022/03/02 10:49:17;;;;;;;7.32;5.15;;;16.20;79.10;;;;;;5088780;28;20259;-79
2022/03/02 10:51:48;;;;;;;5.47;4.40;;;16.20;61.70;;;;;;5124187;27;20180;-78
2022/03/02 10:54:21;;;;;;;4.93;4.10;;;16.10;79.10;;;;;;5092730;28;20192;-79
2022/03/02 10:56:51;;;;;;;4.75;3.97;;;16.10;76.40;;;;;;5096282;28;20214;-77
2022/03/02 10:59:27;;;;;;;5.05;4.10;;;16.10;80.70;;;;;;5093096;28;20195;-75
2022/03/02 11:01:53;;;;;;;3.97;3.58;;;16.20;78.90;;;;;;5092752;28;20195;-80
2022/03/02 11:04:22;;;;;;;7.03;5.00;;;16.20;84.00;;;;;;5092546;28;20213;-80
2022/03/02 11:06:52;;;;;;;5.15;4.18;;;16.30;77.00;;;;;;5087915;28;20179;-79
2022/03/02 11:09:20;;;;;;;5.28;4.78;;;16.30;81.90;;;;;;5080292;28;20233;-79
2022/03/02 11:11:47;;;;;;;6.20;4.53;;;16.30;75.70;;;;;;5086274;28;20284;-79
2022/03/02 11:14:13;;;;;;;5.03;4.05;;;16.30;79.80;;;;;;5114987;27;20172;-79
2022/03/02 11:16:39;;;;;;;5.35;4.25;;;16.20;81.00;;;;;;5083511;28;20184;-79
2022/03/02 11:19:18;;;;;;;6.18;4.45;;;16.20;81.00;;;;;;5077685;28;20172;-76
2022/03/02 11:21:44;;;;;;;4.88;3.88;;;16.20;75.70;;;;;;5108941;28;20183;-78
2022/03/02 11:24:16;;;;;;;5.07;4.30;;;16.20;82.20;;;;;;5089767;28;20171;-80
2022/03/02 11:26:43;;;;;;;5.00;4.13;;;16.30;79.80;;;;;;5117289;27;20220;-80
2022/03/02 11:29:13;;;;;;;6.00;4.05;;;16.20;79.30;;;;;;5116081;27;20182;-75
2022/03/02 11:31:44;;;;;;;5.03;4.28;;;16.20;80.10;;;;;;5115211;27;20176;-78
2022/03/02 11:34:14;;;;;;;4.97;4.00;;;16.20;78.30;;;;;;5126486;27;20176;-79
2022/03/02 11:36:45;;;;;;;6.65;4.30;;;16.20;78.10;;;;;;5077936;28;20176;-77
2022/03/02 11:39:12;;;;;;;6.07;4.10;;;16.30;81.30;;;;;;5110150;28;20228;-79
2022/03/02 11:41:46;;;;;;;6.90;4.65;;;16.20;80.80;;;;;;5081543;28;20210;-80
2022/03/02 11:44:25;;;;;;;5.90;4.10;;;16.30;74.90;;;;;;5117283;27;20170;-79
2022/03/02 11:46:51;;;;;;;5.90;4.47;;;16.30;70.20;;;;;;5077153;28;20180;-77
2022/03/02 11:49:17;;;;;;;6.30;4.70;;;16.20;80.00;;;;;;5079361;28;20183;-79
2022/03/02 11:51:43;;;;;;;4.70;4.03;;;16.20;78.30;;;;;;5111417;27;20199;-79
2022/03/02 11:54:11;;;;;;;4.97;4.43;;;16.20;78.80;;;;;;5080331;28;20187;-79
2022/03/02 11:56:37;;;;;;;5.05;4.35;;;16.30;78.90;;;;;;5109447;28;20175;-80
2022/03/02 11:59:12;;;;;;;5.28;4.25;;;16.30;79.00;;;;;;5076907;28;20192;-81
2022/03/02 12:01:47;;;;;;;5.78;4.07;;;16.40;79.10;;;;;;5078581;28;20225;-70
2022/03/02 12:04:14;;;;;;;6.68;4.57;;;16.50;77.40;;;;;;5122693;27;20179;-70
2022/03/02 12:06:44;;;;;;;5.35;4.40;;;16.60;78.00;;;;;;5089189;28;20211;-70
2022/03/02 12:09:25;;;;;;;5.25;3.92;;;16.60;76.50;;;;;;5111901;28;20190;-73
2022/03/02 12:12:07;;;;;;;5.18;4.13;;;16.70;74.20;;;;;;5076484;28;20176;-66
2022/03/02 12:14:45;;;;;;;4.70;4.03;;;16.80;79.30;;;;;;5108893;28;20204;-70
2022/03/02 12:17:21;;;;;;;6.65;4.60;;;16.90;73.90;;;;;;5083507;28;20349;-70
2022/03/02 12:19:54;;;;;;;5.22;4.32;;;17.00;72.60;;;;;;5099628;28;20170;-71
2022/03/02 12:22:23;;;;;;;5.72;4.40;;;17.10;74.80;;;;;;5089763;28;20262;-69
2022/03/02 12:24:49;;;;;;;6.25;4.38;;;17.10;77.20;;;;;;5091935;28;20270;-68
2022/03/02 12:27:16;;;;;;;5.82;4.45;;;17.20;75.80;;;;;;5113341;27;20248;-68
2022/03/02 12:29:43;;;;;;;7.28;4.68;;;17.20;75.60;;;;;;5086010;28;20260;-67
2022/03/02 12:32:17;;;;;;;5.60;4.60;;;17.20;74.60;;;;;;5088274;28;20205;-69
2022/03/02 12:34:50;;;;;;;8.40;5.90;;;17.20;68.30;;;;;;5115062;27;20216;-67
2022/03/02 12:37:22;;;;;;;6.85;4.60;;;17.10;65.40;;;;;;5081850;28;20198;-68
2022/03/02 12:39:48;;;;;;;6.78;4.53;;;17.10;68.20;;;;;;5089931;28;20317;-69
2022/03/02 12:42:16;;;;;;;5.20;4.70;;;17.10;71.30;;;;;;5080223;28;20179;-68
2022/03/02 12:44:47;;;;;;;5.25;4.40;;;17.10;68.80;;;;;;5112607;27;20176;-69
2022/03/02 12:47:24;;;;;;;10.80;5.00;;;17.10;68.80;;;;;;5111412;28;20207;-68
2022/03/02 12:49:50;;;;;;;5.20;4.30;;;17.10;70.40;;;;;;5065157;28;20191;-68
2022/03/02 12:52:21;;;;;;;5.07;4.18;;;17.20;72.80;;;;;;5111449;28;20223;-69
2022/03/02 12:54:50;;;;;;;4.93;4.13;;;17.30;68.90;;;;;;5080443;28;20195;-67
2022/03/02 12:57:18;;;;;;;4.78;3.85;;;17.40;68.20;;;;;;5109383;28;20211;-69
2022/03/02 12:59:47;;;;;;;4.88;3.88;;;17.50;70.50;;;;;;5111968;28;20179;-69
2022/03/02 13:02:17;;;;;;;4.43;4.03;;;17.50;69.10;;;;;;5072047;28;20187;-68
2022/03/02 13:05:02;;;;;;;5.55;4.60;;;17.60;69.10;;;;;;5081760;28;20191;-68